sensor_id;sensor_type;location;lat;lon;timestamp;pressure;altitude;pressure_sealevel;temperature;humidity
7075;BME280;3578;51.568;6.932;2023-07-31T00:00:15;46017.03;;;-144.14;100.00
7075;BME280;3578;51.568;6.932;2023-07-31T00:02:42;46095.03;;;-144.14;100.00
7075;BME280;3578;51.568;6.932;2023-07-31T00:05:09;46199.00;;;-144.14;100.00
7075;BME280;3578;51.568;6.932;2023-07-31T00:07:37;46291.00;;;-144.14;100.00
7075;BME280;3578;51.568;6.932;2023-07-31T00:10:06;46385.00;;;-144.14;100.00
7075;BME280;3578;51.568;6.932;2023-07-31T00:12:33;46315.00;;;-144.14;100.00
7075;BME280;3578;51.568;6.932;2023-07-31T00:15:01;46299.00;;;-144.14;100.00
7075;BME280;3578;51.568;6.932;2023-07-31T00:17:28;46271.00;;;-144.14;100.00
7075;BME280;3578;51.568;6.932;2023-07-31T00:19:55;46257.00;;;-144.14;100.00
7075;BME280;3578;51.568;6.932;2023-07-31T00:22:22;46203.00;;;-144.14;100.00
7075;BME280;3578;51.568;6.932;2023-07-31T00:24:49;46215.00;;;-144.14;100.00
7075;BME280;3578;51.568;6.932;2023-07-31T00:27:17;46093.03;;;-144.14;100.00
7075;BME280;3578;51.568;6.932;2023-07-31T00:29:44;45923.03;;;-144.14;100.00
7075;BME280;3578;51.568;6.932;2023-07-31T00:32:11;45939.03;;;-144.14;100.00
7075;BME280;3578;51.568;6.932;2023-07-31T00:34:39;46153.00;;;-144.14;100.00
7075;BME280;3578;51.568;6.932;2023-07-31T00:37:06;46323.00;;;-144.14;100.00
7075;BME280;3578;51.568;6.932;2023-07-31T00:39:34;46279.00;;;-144.14;100.00
7075;BME280;3578;51.568;6.932;2023-07-31T00:42:02;46267.00;;;-144.14;100.00
7075;BME280;3578;51.568;6.932;2023-07-31T00:44:32;46283.00;;;-144.14;100.00
7075;BME280;3578;51.568;6.932;2023-07-31T00:46:59;46297.00;;;-144.14;100.00
7075;BME280;3578;51.568;6.932;2023-07-31T00:49:26;46285.00;;;-144.14;100.00
7075;BME280;3578;51.568;6.932;2023-07-31T00:51:54;46261.00;;;-144.14;100.00
7075;BME280;3578;51.568;6.932;2023-07-31T00:54:23;46205.00;;;-144.14;100.00
7075;BME280;3578;51.568;6.932;2023-07-31T00:56:51;46227.00;;;-144.14;100.00
7075;BME280;3578;51.568;6.932;2023-07-31T00:59:19;46239.00;;;-144.14;100.00
7075;BME280;3578;51.568;6.932;2023-07-31T01:01:48;46207.00;;;-144.14;100.00
7075;BME280;3578;51.568;6.932;2023-07-31T01:04:16;46157.00;;;-144.14;100.00
7075;BME280;3578;51.568;6.932;2023-07-31T01:06:48;46151.00;;;-144.14;100.00
7075;BME280;3578;51.568;6.932;2023-07-31T01:09:23;46173.00;;;-144.14;100.00
7075;BME280;3578;51.568;6.932;2023-07-31T01:12:01;46179.00;;;-144.14;100.00
7075;BME280;3578;51.568;6.932;2023-07-31T01:14:28;46155.00;;;-144.14;100.00
7075;BME280;3578;51.568;6.932;2023-07-31T01:16:57;46191.00;;;-144.14;100.00
7075;BME280;3578;51.568;6.932;2023-07-31T01:19:25;46195.00;;;-144.14;100.00
7075;BME280;3578;51.568;6.932;2023-07-31T01:22:16;46171.00;;;-144.14;100.00
7075;BME280;3578;51.568;6.932;2023-07-31T01:24:59;46147.00;;;-144.14;100.00
7075;BME280;3578;51.568;6.932;2023-07-31T01:27:34;46101.03;;;-144.14;100.00
7075;BME280;3578;51.568;6.932;2023-07-31T01:30:08;46063.03;;;-144.14;100.00
7075;BME280;3578;51.568;6.932;2023-07-31T01:32:41;46091.03;;;-144.14;100.00
7075;BME280;3578;51.568;6.932;2023-07-31T01:35:09;46065.03;;;-144.14;100.00
7075;BME280;3578;51.568;6.932;2023-07-31T01:37:36;46039.03;;;-144.14;100.00
7075;BME280;3578;51.568;6.932;2023-07-31T01:40:06;46043.03;;;-144.14;100.00
7075;BME280;3578;51.568;6.932;2023-07-31T01:42:35;46133.00;;;-144.14;100.00
7075;BME280;3578;51.568;6.932;2023-07-31T01:45:02;46153.00;;;-144.14;100.00
7075;BME280;3578;51.568;6.932;2023-07-31T01:47:29;46187.00;;;-144.14;100.00
7075;BME280;3578;51.568;6.932;2023-07-31T01:49:56;46199.00;;;-144.14;100.00
7075;BME280;3578;51.568;6.932;2023-07-31T01:52:23;46249.00;;;-144.14;100.00
7075;BME280;3578;51.568;6.932;2023-07-31T01:54:50;46293.00;;;-144.14;100.00
7075;BME280;3578;51.568;6.932;2023-07-31T01:57:17;46299.00;;;-144.14;100.00
7075;BME280;3578;51.568;6.932;2023-07-31T01:59:45;46359.00;;;-144.14;100.00
7075;BME280;3578;51.568;6.932;2023-07-31T02:02:13;46395.00;;;-144.14;100.00
7075;BME280;3578;51.568;6.932;2023-07-31T02:04:40;46487.00;;;-144.14;100.00
7075;BME280;3578;51.568;6.932;2023-07-31T02:07:07;46513.00;;;-144.14;100.00
7075;BME280;3578;51.568;6.932;2023-07-31T02:09:34;46559.00;;;-144.14;100.00
7075;BME280;3578;51.568;6.932;2023-07-31T02:12:01;46599.03;;;-144.14;100.00
7075;BME280;3578;51.568;6.932;2023-07-31T02:14:28;46621.03;;;-144.14;100.00
7075;BME280;3578;51.568;6.932;2023-07-31T02:16:56;46565.00;;;-144.14;100.00
7075;BME280;3578;51.568;6.932;2023-07-31T02:19:23;46603.03;;;-144.14;100.00
7075;BME280;3578;51.568;6.932;2023-07-31T02:21:50;46605.03;;;-144.14;100.00
7075;BME280;3578;51.568;6.932;2023-07-31T02:24:17;46633.03;;;-144.14;100.00
7075;BME280;3578;51.568;6.932;2023-07-31T02:26:44;46677.03;;;-144.14;100.00
7075;BME280;3578;51.568;6.932;2023-07-31T02:29:11;46659.03;;;-144.14;100.00
7075;BME280;3578;51.568;6.932;2023-07-31T02:31:37;46711.03;;;-144.14;100.00
7075;BME280;3578;51.568;6.932;2023-07-31T02:34:06;46715.03;;;-144.14;100.00
7075;BME280;3578;51.568;6.932;2023-07-31T02:36:33;46723.03;;;-144.14;100.00
7075;BME280;3578;51.568;6.932;2023-07-31T02:39:00;46699.03;;;-144.14;100.00
7075;BME280;3578;51.568;6.932;2023-07-31T02:41:27;46651.03;;;-144.14;100.00
7075;BME280;3578;51.568;6.932;2023-07-31T02:43:54;46627.03;;;-144.14;100.00
7075;BME280;3578;51.568;6.932;2023-07-31T02:46:21;46641.03;;;-144.14;100.00
7075;BME280;3578;51.568;6.932;2023-07-31T02:48:50;46649.03;;;-144.14;100.00
7075;BME280;3578;51.568;6.932;2023-07-31T02:51:18;46655.03;;;-144.14;100.00
7075;BME280;3578;51.568;6.932;2023-07-31T02:53:47;46667.03;;;-144.14;100.00
7075;BME280;3578;51.568;6.932;2023-07-31T02:56:14;46711.03;;;-144.14;100.00
7075;BME280;3578;51.568;6.932;2023-07-31T02:58:41;46739.03;;;-144.14;100.00
7075;BME280;3578;51.568;6.932;2023-07-31T03:01:08;46763.03;;;-144.14;100.00
7075;BME280;3578;51.568;6.932;2023-07-31T03:03:34;46743.03;;;-144.14;100.00
7075;BME280;3578;51.568;6.932;2023-07-31T03:06:01;46743.03;;;-144.14;100.00
7075;BME280;3578;51.568;6.932;2023-07-31T03:08:30;46685.03;;;-144.14;100.00
7075;BME280;3578;51.568;6.932;2023-07-31T03:10:57;46703.03;;;-144.14;100.00
7075;BME280;3578;51.568;6.932;2023-07-31T03:13:24;46695.03;;;-144.14;100.00
7075;BME280;3578;51.568;6.932;2023-07-31T03:15:51;46755.03;;;-144.14;100.00
7075;BME280;3578;51.568;6.932;2023-07-31T03:18:18;46771.03;;;-144.14;100.00
7075;BME280;3578;51.568;6.932;2023-07-31T03:20:45;46785.03;;;-144.14;100.00
7075;BME280;3578;51.568;6.932;2023-07-31T03:23:12;46787.03;;;-144.14;100.00
7075;BME280;3578;51.568;6.932;2023-07-31T03:25:55;46807.03;;;-144.14;100.00
7075;BME280;3578;51.568;6.932;2023-07-31T03:28:22;46831.03;;;-144.14;100.00
7075;BME280;3578;51.568;6.932;2023-07-31T03:30:50;46763.03;;;-144.14;100.00
7075;BME280;3578;51.568;6.932;2023-07-31T03:33:17;46805.03;;;-144.14;100.00
7075;BME280;3578;51.568;6.932;2023-07-31T03:35:44;46795.03;;;-144.14;100.00
7075;BME280;3578;51.568;6.932;2023-07-31T03:38:11;46811.03;;;-144.14;100.00
7075;BME280;3578;51.568;6.932;2023-07-31T03:40:40;46821.03;;;-144.14;100.00
7075;BME280;3578;51.568;6.932;2023-07-31T03:43:07;46809.03;;;-144.14;100.00
7075;BME280;3578;51.568;6.932;2023-07-31T03:45:34;46835.03;;;-144.14;100.00
7075;BME280;3578;51.568;6.932;2023-07-31T03:48:01;46825.03;;;-144.14;100.00
7075;BME280;3578;51.568;6.932;2023-07-31T03:50:29;46831.03;;;-144.14;100.00
7075;BME280;3578;51.568;6.932;2023-07-31T03:52:56;46869.06;;;-144.14;100.00
7075;BME280;3578;51.568;6.932;2023-07-31T03:55:23;46871.06;;;-144.14;100.00
7075;BME280;3578;51.568;6.932;2023-07-31T03:57:51;46891.06;;;-144.14;100.00
7075;BME280;3578;51.568;6.932;2023-07-31T04:00:18;46923.06;;;-144.14;100.00
7075;BME280;3578;51.568;6.932;2023-07-31T04:02:46;46939.06;;;-144.14;100.00
7075;BME280;3578;51.568;6.932;2023-07-31T04:05:13;46951.06;;;-144.14;100.00
7075;BME280;3578;51.568;6.932;2023-07-31T04:07:40;46973.06;;;-144.14;100.00
7075;BME280;3578;51.568;6.932;2023-07-31T04:10:07;46979.06;;;-144.14;100.00
7075;BME280;3578;51.568;6.932;2023-07-31T04:12:37;47089.09;;;-144.14;100.00
7075;BME280;3578;51.568;6.932;2023-07-31T04:15:07;47093.09;;;-144.14;100.00
7075;BME280;3578;51.568;6.932;2023-07-31T04:17:34;47153.09;;;-144.14;100.00
7075;BME280;3578;51.568;6.932;2023-07-31T04:20:01;47163.09;;;-144.14;100.00
7075;BME280;3578;51.568;6.932;2023-07-31T04:22:28;47195.13;;;-144.14;100.00
7075;BME280;3578;51.568;6.932;2023-07-31T04:24:55;47179.13;;;-144.14;100.00
7075;BME280;3578;51.568;6.932;2023-07-31T04:27:22;47207.13;;;-144.14;100.00
7075;BME280;3578;51.568;6.932;2023-07-31T04:29:49;47239.13;;;-144.14;100.00
7075;BME280;3578;51.568;6.932;2023-07-31T04:32:18;47243.13;;;-144.14;100.00
7075;BME280;3578;51.568;6.932;2023-07-31T04:34:45;47227.13;;;-144.14;100.00
7075;BME280;3578;51.568;6.932;2023-07-31T04:37:12;47241.13;;;-144.14;100.00
7075;BME280;3578;51.568;6.932;2023-07-31T04:39:40;47245.13;;;-144.14;100.00
7075;BME280;3578;51.568;6.932;2023-07-31T04:42:07;47257.13;;;-144.14;100.00
7075;BME280;3578;51.568;6.932;2023-07-31T04:44:33;47267.13;;;-144.14;100.00
7075;BME280;3578;51.568;6.932;2023-07-31T04:47:00;47219.13;;;-144.14;100.00
7075;BME280;3578;51.568;6.932;2023-07-31T04:49:29;47199.13;;;-144.14;100.00
7075;BME280;3578;51.568;6.932;2023-07-31T04:51:56;47195.13;;;-144.14;100.00
7075;BME280;3578;51.568;6.932;2023-07-31T04:54:23;47213.13;;;-144.14;100.00
7075;BME280;3578;51.568;6.932;2023-07-31T04:56:50;47191.13;;;-144.14;100.00
7075;BME280;3578;51.568;6.932;2023-07-31T04:59:18;47203.13;;;-144.14;100.00
7075;BME280;3578;51.568;6.932;2023-07-31T05:01:45;47207.13;;;-144.14;100.00
7075;BME280;3578;51.568;6.932;2023-07-31T05:04:12;47217.13;;;-144.14;100.00
7075;BME280;3578;51.568;6.932;2023-07-31T05:06:41;47195.13;;;-144.14;100.00
7075;BME280;3578;51.568;6.932;2023-07-31T05:09:08;47181.13;;;-144.14;100.00
7075;BME280;3578;51.568;6.932;2023-07-31T05:11:36;47163.09;;;-144.14;100.00
7075;BME280;3578;51.568;6.932;2023-07-31T05:14:03;47167.09;;;-144.14;100.00
7075;BME280;3578;51.568;6.932;2023-07-31T05:16:29;47189.13;;;-144.14;100.00
7075;BME280;3578;51.568;6.932;2023-07-31T05:18:56;47207.13;;;-144.14;100.00
7075;BME280;3578;51.568;6.932;2023-07-31T05:21:23;47197.13;;;-144.14;100.00
7075;BME280;3578;51.568;6.932;2023-07-31T05:23:52;47197.13;;;-144.14;100.00
7075;BME280;3578;51.568;6.932;2023-07-31T05:26:19;47175.13;;;-144.14;100.00
7075;BME280;3578;51.568;6.932;2023-07-31T05:28:46;47191.13;;;-144.14;100.00
7075;BME280;3578;51.568;6.932;2023-07-31T05:31:13;47221.13;;;-144.14;100.00
7075;BME280;3578;51.568;6.932;2023-07-31T05:33:40;47227.13;;;-144.14;100.00
7075;BME280;3578;51.568;6.932;2023-07-31T05:36:07;47207.13;;;-144.14;100.00
7075;BME280;3578;51.568;6.932;2023-07-31T05:38:35;47251.13;;;-144.14;100.00
7075;BME280;3578;51.568;6.932;2023-07-31T05:41:03;47241.13;;;-144.14;100.00
7075;BME280;3578;51.568;6.932;2023-07-31T05:43:30;47225.13;;;-144.14;100.00
7075;BME280;3578;51.568;6.932;2023-07-31T05:45:57;47211.13;;;-144.14;100.00
7075;BME280;3578;51.568;6.932;2023-07-31T05:48:24;47215.13;;;-144.14;100.00
7075;BME280;3578;51.568;6.932;2023-07-31T05:50:51;47227.13;;;-144.14;100.00
7075;BME280;3578;51.568;6.932;2023-07-31T05:53:18;47223.13;;;-144.14;100.00
7075;BME280;3578;51.568;6.932;2023-07-31T05:55:45;47235.13;;;-144.14;100.00
7075;BME280;3578;51.568;6.932;2023-07-31T05:58:13;47241.13;;;-144.14;100.00
7075;BME280;3578;51.568;6.932;2023-07-31T06:00:40;47219.13;;;-144.14;100.00
7075;BME280;3578;51.568;6.932;2023-07-31T06:03:07;47235.13;;;-144.14;100.00
7075;BME280;3578;51.568;6.932;2023-07-31T06:05:33;47219.13;;;-144.14;100.00
7075;BME280;3578;51.568;6.932;2023-07-31T06:08:01;47217.13;;;-144.14;100.00
7075;BME280;3578;51.568;6.932;2023-07-31T06:10:28;47223.13;;;-144.14;100.00
7075;BME280;3578;51.568;6.932;2023-07-31T06:12:55;47239.13;;;-144.14;100.00
7075;BME280;3578;51.568;6.932;2023-07-31T06:15:24;47189.13;;;-144.14;100.00
7075;BME280;3578;51.568;6.932;2023-07-31T06:17:51;47211.13;;;-144.14;100.00
7075;BME280;3578;51.568;6.932;2023-07-31T06:20:18;47203.13;;;-144.14;100.00
7075;BME280;3578;51.568;6.932;2023-07-31T06:22:45;47195.13;;;-144.14;100.00
7075;BME280;3578;51.568;6.932;2023-07-31T06:25:12;47215.13;;;-144.14;100.00
7075;BME280;3578;51.568;6.932;2023-07-31T06:27:39;47211.13;;;-144.14;100.00
7075;BME280;3578;51.568;6.932;2023-07-31T06:30:07;47187.13;;;-144.14;100.00
7075;BME280;3578;51.568;6.932;2023-07-31T06:32:36;47187.13;;;-144.14;100.00
7075;BME280;3578;51.568;6.932;2023-07-31T06:35:03;47187.13;;;-144.14;100.00
7075;BME280;3578;51.568;6.932;2023-07-31T06:37:30;47195.13;;;-144.14;100.00
7075;BME280;3578;51.568;6.932;2023-07-31T06:39:57;47161.09;;;-144.14;100.00
7075;BME280;3578;51.568;6.932;2023-07-31T06:42:24;47159.09;;;-144.14;100.00
7075;BME280;3578;51.568;6.932;2023-07-31T06:44:51;47159.09;;;-144.14;100.00
7075;BME280;3578;51.568;6.932;2023-07-31T06:47:18;47163.09;;;-144.14;100.00
7075;BME280;3578;51.568;6.932;2023-07-31T06:49:46;47147.09;;;-144.14;100.00
7075;BME280;3578;51.568;6.932;2023-07-31T06:52:13;47143.09;;;-144.14;100.00
7075;BME280;3578;51.568;6.932;2023-07-31T06:54:40;47099.09;;;-144.14;100.00
7075;BME280;3578;51.568;6.932;2023-07-31T06:57:07;47139.09;;;-144.14;100.00
7075;BME280;3578;51.568;6.932;2023-07-31T06:59:34;47157.09;;;-144.14;100.00
7075;BME280;3578;51.568;6.932;2023-07-31T07:02:01;47155.09;;;-144.14;100.00
7075;BME280;3578;51.568;6.932;2023-07-31T07:04:28;47141.09;;;-144.14;100.00
7075;BME280;3578;51.568;6.932;2023-07-31T07:06:56;47135.09;;;-144.14;100.00
7075;BME280;3578;51.568;6.932;2023-07-31T07:09:23;47147.09;;;-144.14;100.00
7075;BME280;3578;51.568;6.932;2023-07-31T07:11:50;47153.09;;;-144.14;100.00
7075;BME280;3578;51.568;6.932;2023-07-31T07:14:17;47181.13;;;-144.14;100.00
7075;BME280;3578;51.568;6.932;2023-07-31T07:16:44;47173.13;;;-144.14;100.00
7075;BME280;3578;51.568;6.932;2023-07-31T07:19:11;47167.09;;;-144.14;100.00
7075;BME280;3578;51.568;6.932;2023-07-31T07:21:38;47191.13;;;-144.14;100.00
7075;BME280;3578;51.568;6.932;2023-07-31T07:24:06;47189.13;;;-144.14;100.00
7075;BME280;3578;51.568;6.932;2023-07-31T07:26:33;47183.13;;;-144.14;100.00
7075;BME280;3578;51.568;6.932;2023-07-31T07:29:00;47201.13;;;-144.14;100.00
7075;BME280;3578;51.568;6.932;2023-07-31T07:31:28;47167.09;;;-144.14;100.00
7075;BME280;3578;51.568;6.932;2023-07-31T07:33:55;47153.09;;;-144.14;100.00
7075;BME280;3578;51.568;6.932;2023-07-31T07:36:22;47171.09;;;-144.14;100.00
7075;BME280;3578;51.568;6.932;2023-07-31T07:38:49;47173.13;;;-144.14;100.00
7075;BME280;3578;51.568;6.932;2023-07-31T07:41:18;47187.13;;;-144.14;100.00
7075;BME280;3578;51.568;6.932;2023-07-31T07:43:45;47191.13;;;-144.14;100.00
7075;BME280;3578;51.568;6.932;2023-07-31T07:46:12;47199.13;;;-144.14;100.00
7075;BME280;3578;51.568;6.932;2023-07-31T07:48:39;47197.13;;;-144.14;100.00
7075;BME280;3578;51.568;6.932;2023-07-31T07:51:06;47183.13;;;-144.14;100.00
7075;BME280;3578;51.568;6.932;2023-07-31T07:53:33;47191.13;;;-144.14;100.00
7075;BME280;3578;51.568;6.932;2023-07-31T07:56:00;47187.13;;;-144.14;100.00
7075;BME280;3578;51.568;6.932;2023-07-31T07:58:28;47189.13;;;-144.14;100.00
7075;BME280;3578;51.568;6.932;2023-07-31T08:00:55;47223.13;;;-144.14;100.00
7075;BME280;3578;51.568;6.932;2023-07-31T08:03:22;47203.13;;;-144.14;100.00
7075;BME280;3578;51.568;6.932;2023-07-31T08:05:49;47211.13;;;-144.14;100.00
7075;BME280;3578;51.568;6.932;2023-07-31T08:08:16;47215.13;;;-144.14;100.00
7075;BME280;3578;51.568;6.932;2023-07-31T08:10:43;47239.13;;;-144.14;100.00
7075;BME280;3578;51.568;6.932;2023-07-31T08:13:11;47243.13;;;-144.14;100.00
7075;BME280;3578;51.568;6.932;2023-07-31T08:15:41;47255.13;;;-144.14;100.00
7075;BME280;3578;51.568;6.932;2023-07-31T08:18:08;47201.13;;;-144.14;100.00
7075;BME280;3578;51.568;6.932;2023-07-31T08:20:35;47177.13;;;-144.14;100.00
7075;BME280;3578;51.568;6.932;2023-07-31T08:23:02;47231.13;;;-144.14;100.00
7075;BME280;3578;51.568;6.932;2023-07-31T08:25:30;47253.13;;;-144.14;100.00
7075;BME280;3578;51.568;6.932;2023-07-31T08:27:57;47231.13;;;-144.14;100.00
7075;BME280;3578;51.568;6.932;2023-07-31T08:30:23;47243.13;;;-144.14;100.00
7075;BME280;3578;51.568;6.932;2023-07-31T08:32:52;47241.13;;;-144.14;100.00
7075;BME280;3578;51.568;6.932;2023-07-31T08:35:19;47249.13;;;-144.14;100.00
7075;BME280;3578;51.568;6.932;2023-07-31T08:37:46;47263.13;;;-144.14;100.00
7075;BME280;3578;51.568;6.932;2023-07-31T08:40:13;47263.13;;;-144.14;100.00
7075;BME280;3578;51.568;6.932;2023-07-31T08:42:47;47227.13;;;-144.14;100.00
7075;BME280;3578;51.568;6.932;2023-07-31T08:45:16;47239.13;;;-144.14;100.00
7075;BME280;3578;51.568;6.932;2023-07-31T08:47:45;47259.13;;;-144.14;100.00
7075;BME280;3578;51.568;6.932;2023-07-31T08:50:16;47259.13;;;-144.14;100.00
7075;BME280;3578;51.568;6.932;2023-07-31T08:52:45;47259.13;;;-144.14;100.00
7075;BME280;3578;51.568;6.932;2023-07-31T08:55:13;47233.13;;;-144.14;100.00
7075;BME280;3578;51.568;6.932;2023-07-31T08:57:40;47263.13;;;-144.14;100.00
7075;BME280;3578;51.568;6.932;2023-07-31T09:00:10;47267.13;;;-144.14;100.00
7075;BME280;3578;51.568;6.932;2023-07-31T09:02:41;47339.16;;;-144.14;100.00
7075;BME280;3578;51.568;6.932;2023-07-31T09:05:13;47287.13;;;-144.14;100.00
7075;BME280;3578;51.568;6.932;2023-07-31T09:07:42;47289.13;;;-144.14;100.00
7075;BME280;3578;51.568;6.932;2023-07-31T09:10:12;47283.13;;;-144.14;100.00
7075;BME280;3578;51.568;6.932;2023-07-31T09:12:39;47287.13;;;-144.14;100.00
7075;BME280;3578;51.568;6.932;2023-07-31T09:15:07;47351.16;;;-144.14;100.00
7075;BME280;3578;51.568;6.932;2023-07-31T09:17:36;47309.16;;;-144.14;100.00
7075;BME280;3578;51.568;6.932;2023-07-31T09:20:19;47321.16;;;-144.14;100.00
7075;BME280;3578;51.568;6.932;2023-07-31T09:22:48;47351.16;;;-144.14;100.00
7075;BME280;3578;51.568;6.932;2023-07-31T09:25:17;47311.16;;;-144.14;100.00
7075;BME280;3578;51.568;6.932;2023-07-31T09:27:49;47347.16;;;-144.14;100.00
7075;BME280;3578;51.568;6.932;2023-07-31T09:30:17;47343.16;;;-144.14;100.00
7075;BME280;3578;51.568;6.932;2023-07-31T09:32:44;47367.16;;;-144.14;100.00
7075;BME280;3578;51.568;6.932;2023-07-31T09:35:21;47409.19;;;-144.14;100.00
7075;BME280;3578;51.568;6.932;2023-07-31T09:37:51;47381.16;;;-144.14;100.00
7075;BME280;3578;51.568;6.932;2023-07-31T09:40:31;47399.19;;;-144.14;100.00
7075;BME280;3578;51.568;6.932;2023-07-31T09:43:00;47417.19;;;-144.14;100.00
7075;BME280;3578;51.568;6.932;2023-07-31T09:45:28;47433.19;;;-144.14;100.00
7075;BME280;3578;51.568;6.932;2023-07-31T09:47:56;47425.19;;;-144.14;100.00
7075;BME280;3578;51.568;6.932;2023-07-31T09:50:25;47451.19;;;-144.14;100.00
7075;BME280;3578;51.568;6.932;2023-07-31T09:52:52;47419.19;;;-144.14;100.00
7075;BME280;3578;51.568;6.932;2023-07-31T09:55:19;47469.19;;;-144.14;100.00
7075;BME280;3578;51.568;6.932;2023-07-31T09:57:48;47467.19;;;-144.14;100.00
7075;BME280;3578;51.568;6.932;2023-07-31T10:00:17;47419.19;;;-144.14;100.00
7075;BME280;3578;51.568;6.932;2023-07-31T10:02:46;47447.19;;;-144.14;100.00
7075;BME280;3578;51.568;6.932;2023-07-31T10:05:14;47477.19;;;-144.14;100.00
7075;BME280;3578;51.568;6.932;2023-07-31T10:07:54;47511.22;;;-144.14;100.00
7075;BME280;3578;51.568;6.932;2023-07-31T10:10:22;47503.22;;;-144.14;100.00
7075;BME280;3578;51.568;6.932;2023-07-31T10:12:49;47475.19;;;-144.14;100.00
7075;BME280;3578;51.568;6.932;2023-07-31T10:15:19;47517.22;;;-144.14;100.00
7075;BME280;3578;51.568;6.932;2023-07-31T10:17:48;47457.19;;;-144.14;100.00
7075;BME280;3578;51.568;6.932;2023-07-31T10:20:16;47495.22;;;-144.14;100.00
7075;BME280;3578;51.568;6.932;2023-07-31T10:22:45;47489.22;;;-144.14;100.00
7075;BME280;3578;51.568;6.932;2023-07-31T10:25:13;47479.19;;;-144.14;100.00
7075;BME280;3578;51.568;6.932;2023-07-31T10:27:41;47507.22;;;-144.14;100.00
7075;BME280;3578;51.568;6.932;2023-07-31T10:30:12;47525.22;;;-144.14;100.00
7075;BME280;3578;51.568;6.932;2023-07-31T10:32:41;47471.19;;;-144.14;100.00
7075;BME280;3578;51.568;6.932;2023-07-31T10:35:10;47509.22;;;-144.14;100.00
7075;BME280;3578;51.568;6.932;2023-07-31T10:37:40;47519.22;;;-144.14;100.00
7075;BME280;3578;51.568;6.932;2023-07-31T10:40:11;47503.22;;;-144.14;100.00
7075;BME280;3578;51.568;6.932;2023-07-31T10:42:47;47529.22;;;-144.14;100.00
7075;BME280;3578;51.568;6.932;2023-07-31T10:45:24;47515.22;;;-144.14;100.00
7075;BME280;3578;51.568;6.932;2023-07-31T10:47:59;47551.22;;;-144.14;100.00
7075;BME280;3578;51.568;6.932;2023-07-31T10:50:28;47545.22;;;-144.14;100.00
7075;BME280;3578;51.568;6.932;2023-07-31T10:52:56;47533.22;;;-144.14;100.00
7075;BME280;3578;51.568;6.932;2023-07-31T10:55:31;47537.22;;;-144.14;100.00
7075;BME280;3578;51.568;6.932;2023-07-31T10:58:06;47523.22;;;-144.14;100.00
7075;BME280;3578;51.568;6.932;2023-07-31T11:00:33;47581.25;;;-144.14;100.00
7075;BME280;3578;51.568;6.932;2023-07-31T11:03:04;47575.22;;;-144.14;100.00
7075;BME280;3578;51.568;6.932;2023-07-31T11:05:50;47601.25;;;-144.14;100.00
7075;BME280;3578;51.568;6.932;2023-07-31T11:08:21;47631.25;;;-144.14;100.00
7075;BME280;3578;51.568;6.932;2023-07-31T11:11:04;47659.28;;;-144.14;100.00
7075;BME280;3578;51.568;6.932;2023-07-31T11:13:33;47691.28;;;-144.14;100.00
7075;BME280;3578;51.568;6.932;2023-07-31T11:16:01;47703.28;;;-144.14;100.00
7075;BME280;3578;51.568;6.932;2023-07-31T11:18:28;47695.28;;;-144.14;100.00
7075;BME280;3578;51.568;6.932;2023-07-31T11:20:55;47711.28;;;-144.14;100.00
7075;BME280;3578;51.568;6.932;2023-07-31T11:23:23;47699.28;;;-144.14;100.00
7075;BME280;3578;51.568;6.932;2023-07-31T11:25:51;47705.28;;;-144.14;100.00
7075;BME280;3578;51.568;6.932;2023-07-31T11:28:19;47703.28;;;-144.14;100.00
7075;BME280;3578;51.568;6.932;2023-07-31T11:30:46;47713.28;;;-144.14;100.00
7075;BME280;3578;51.568;6.932;2023-07-31T11:33:14;47737.28;;;-144.14;100.00
7075;BME280;3578;51.568;6.932;2023-07-31T11:35:43;47737.28;;;-144.14;100.00
7075;BME280;3578;51.568;6.932;2023-07-31T11:38:11;47703.28;;;-144.14;100.00
7075;BME280;3578;51.568;6.932;2023-07-31T11:40:42;47721.28;;;-144.14;100.00
7075;BME280;3578;51.568;6.932;2023-07-31T11:43:11;47751.31;;;-144.14;100.00
7075;BME280;3578;51.568;6.932;2023-07-31T11:45:42;47731.28;;;-144.14;100.00
7075;BME280;3578;51.568;6.932;2023-07-31T11:48:19;47743.31;;;-144.14;100.00
7075;BME280;3578;51.568;6.932;2023-07-31T11:50:49;47759.31;;;-144.14;100.00
7075;BME280;3578;51.568;6.932;2023-07-31T11:53:20;47751.31;;;-144.14;100.00
7075;BME280;3578;51.568;6.932;2023-07-31T11:55:48;47767.31;;;-144.14;100.00
7075;BME280;3578;51.568;6.932;2023-07-31T11:58:18;47751.31;;;-144.14;100.00
7075;BME280;3578;51.568;6.932;2023-07-31T12:00:46;47753.31;;;-144.14;100.00
7075;BME280;3578;51.568;6.932;2023-07-31T12:03:14;47803.31;;;-144.14;100.00
7075;BME280;3578;51.568;6.932;2023-07-31T12:05:41;47773.31;;;-144.14;100.00
7075;BME280;3578;51.568;6.932;2023-07-31T12:08:11;47793.31;;;-144.14;100.00
7075;BME280;3578;51.568;6.932;2023-07-31T12:10:39;47791.31;;;-144.14;100.00
7075;BME280;3578;51.568;6.932;2023-07-31T12:13:09;47807.31;;;-144.14;100.00
7075;BME280;3578;51.568;6.932;2023-07-31T12:15:42;47815.34;;;-144.14;100.00
7075;BME280;3578;51.568;6.932;2023-07-31T12:18:12;47851.34;;;-144.14;100.00
7075;BME280;3578;51.568;6.932;2023-07-31T12:20:42;47847.34;;;-144.14;100.00
7075;BME280;3578;51.568;6.932;2023-07-31T12:23:17;47861.34;;;-144.14;100.00
7075;BME280;3578;51.568;6.932;2023-07-31T12:25:44;47895.38;;;-144.14;100.00
7075;BME280;3578;51.568;6.932;2023-07-31T12:28:11;47879.34;;;-144.14;100.00
7075;BME280;3578;51.568;6.932;2023-07-31T12:30:40;47883.38;;;-144.14;100.00
7075;BME280;3578;51.568;6.932;2023-07-31T12:33:14;47879.34;;;-144.14;100.00
7075;BME280;3578;51.568;6.932;2023-07-31T12:35:45;47901.38;;;-144.14;100.00
7075;BME280;3578;51.568;6.932;2023-07-31T12:38:12;47903.38;;;-144.14;100.00
7075;BME280;3578;51.568;6.932;2023-07-31T12:40:40;47923.38;;;-144.14;100.00
7075;BME280;3578;51.568;6.932;2023-07-31T12:43:08;47925.38;;;-144.14;100.00
7075;BME280;3578;51.568;6.932;2023-07-31T12:45:35;47911.38;;;-144.14;100.00
7075;BME280;3578;51.568;6.932;2023-07-31T12:48:04;47889.38;;;-144.14;100.00
7075;BME280;3578;51.568;6.932;2023-07-31T12:50:31;47893.38;;;-144.14;100.00
7075;BME280;3578;51.568;6.932;2023-07-31T12:52:58;47927.38;;;-144.14;100.00
7075;BME280;3578;51.568;6.932;2023-07-31T12:55:25;47975.41;;;-144.14;100.00